Terminal Aerodrome Forecast
Issued by NWS Sterling, VA

Home | Current Version | Previous Version | Text Only | Print | Product List | Glossary On
Versions: 1 2 3 4 5 6 7 8 9 10 11 12 13 14 15 16 17 18 19 20 21 22 23 24 25 26
706
FTUS41 KLWX 281731
TAFDCA
TAF
KDCA 281731Z 2818/2918 18005KT P6SM VCTS BKN040CB
     FM282000 17005KT P6SM +TSRA BKN040CB
     FM290300 12004KT 6SM TSRA OVC060CB
     FM290600 15004KT 5SM SHRA OVC050
     FM290900 21004KT P6SM SHRA BKN040
     FM291200 29006KT P6SM -SHRA OVC050
     FM291500 31009KT P6SM BKN050=

USA.gov is the U.S. government's official web portal to all federal, state and local government web resources and services.